Flight Track Log - Related Links

Times and Time Zones

All times are in EDT time to prevent confusion due to time zone crossing. See the XOJ760 flight status page for this flight to view local times or setup timezone preferences in your user account.

Time Position Orientation Groundspeed Altitude Reporting Facility
EDT Latitude Longitude Course Direction KTS MPH feet Rate Location/Type
Tue 02:35:58 PM 42.0500 -87.8833 77° East 224 258 4,400  Level Chicago TRACON
Tue 02:36:58 PM 42.1167 -87.8333 29° Northeast 274 315 5,000 400 Climbing Chicago TRACON
Tue 02:37:28 PM 42.1283 -87.8119 54° Northeast 272 313 5,000 1,891 Level Chicago Center
Tue 02:38:30 PM 42.1881 -87.7417 41° Northeast 285 328 7,900 3,097 Climbing Chicago Center
Tue 02:39:32 PM 42.1944 -87.6011 86° East 321 369 11,400 3,290 Climbing Chicago Center
Tue 02:40:34 PM 42.1742 -87.4781 102° East 335 386 14,700 2,565 Climbing Chicago Center
Tue 02:41:00 PM 42.1134 -86.9531 77° East  Level FlightAware Approximate
Tue 02:41:36 PM 42.1536 -87.3397 101° East 375 432 16,700  Level Chicago Center
Tue 02:43:00 PM 42.1445 -87.1129 79° East  Level Estimated
Tue 02:43:40 PM 42.1111 -87.0283 79° East 431 496 21,100  Level Chicago Center
Tue 02:44:42 PM 42.1194 -86.8311 87° East 442 509 23,500 2,112 Climbing Chicago Center
Tue 02:45:45 PM 42.1269 -86.6692 86° East 450 518 25,500 1,920 Climbing Chicago Center
Tue 02:46:47 PM 42.1347 -86.4953 86° East 461 531 27,500 1,839 Climbing Chicago Center
Tue 02:47:49 PM 42.1414 -86.3197 87° East 468 539 29,300 1,694 Climbing Chicago Center
Tue 02:48:51 PM 42.1481 -86.1417 87° East 475 547 31,000 1,645 Climbing Chicago Center
Tue 02:49:53 PM 42.1553 -85.9336 87° East 491 565 32,700 968 Climbing Chicago Center
Tue 02:50:55 PM 42.1611 -85.7422 88° East 508 585 33,000 435 Climbing Chicago Center
Tue 02:51:57 PM 42.1681 -85.5344 87° East 549 632 33,600 919 Climbing Chicago Center
Tue 02:52:59 PM 42.1739 -85.3275 88° East 556 640 34,900 1,500 Climbing Chicago Center
Tue 02:54:01 PM 42.1836 -85.0781 87° East 560 644 36,700 1,597 Climbing Chicago Center
Tue 02:55:03 PM 42.1878 -84.8769 88° East 545 627 38,200 1,440 Climbing Chicago Center
Tue 02:56:06 PM 42.1928 -84.6753 88° East 542 624 39,700 1,440 Climbing Chicago Center
Tue 02:57:08 PM 42.1978 -84.4783 88° East 531 611 41,200 1,452 Climbing Chicago Center
Tue 02:58:10 PM 42.2019 -84.2872 88° East 515 593 42,700 1,590 Climbing Chicago Center
Tue 02:58:31 PM 42.2014 -84.1908 90° East 511 588 43,400 1,630 Climbing Cleveland Center
Tue 02:59:31 PM 42.2047 -84.0089 89° East 499 574 44,900 800 Climbing Cleveland Center
Tue 03:00:31 PM 42.2058 -83.8267 89° East 487 560 45,000 50 Climbing Cleveland Center
Tue 03:01:31 PM 42.2092 -83.6361 89° East 487 560 45,000  Level Cleveland Center
Tue 03:02:31 PM 42.2142 -83.4400 88° East 515 593 45,000  Level Cleveland Center
Tue 03:03:31 PM 42.2147 -83.2439 90° East 515 593 45,000  Level Cleveland Center
Tue 03:04:31 PM 42.2167 -83.0644 89° East 522 601 45,000  Level Cleveland Center
Tue 03:05:31 PM 42.2164 -82.8681 90° East 522 601 45,000  Level Cleveland Center
Tue 03:06:32 PM 42.2183 -82.6664 89° East 527 606 45,000  Level Cleveland Center
Tue 03:07:31 PM 42.2194 -82.4728 89° East 527 606 45,000  Level Cleveland Center
Tue 03:08:31 PM 42.2206 -82.2711 90° East 527 606 45,000  Level Cleveland Center
Tue 03:09:31 PM 42.2233 -82.0747 89° East 532 612 45,000  Level Cleveland Center
Tue 03:10:31 PM 42.2239 -81.8533 90° East 532 612 45,000  Level Cleveland Center
Tue 03:11:31 PM 42.2217 -81.6542 91° East 537 618 45,000  Level Cleveland Center
Tue 03:12:31 PM 42.2214 -81.4522 90° East 536 617 45,000  Level Cleveland Center
Tue 03:13:31 PM 42.2206 -81.2506 90° East 536 617 45,000  Level Cleveland Center
Tue 03:14:32 PM 42.2194 -81.0486 90° East 536 617 45,000  Level Cleveland Center
Tue 03:15:31 PM 42.2161 -80.8439 91° East 536 617 45,000  Level Cleveland Center
Tue 03:16:31 PM 42.2164 -80.6450 90° East 535 616 45,000  Level Cleveland Center
Tue 03:17:31 PM 42.2142 -80.4458 91° East 529 609 45,000  Level Cleveland Center
Tue 03:18:31 PM 42.2117 -80.2692 91° East 529 609 45,000  Level Cleveland Center
Tue 03:19:31 PM 42.2089 -80.0703 91° East 527 606 45,000  Level Cleveland Center
Tue 03:20:31 PM 42.2058 -79.8711 91° East 527 606 45,000  Level Cleveland Center
Tue 03:21:31 PM 42.2003 -79.6722 92° East 527 606 45,000  Level Cleveland Center
Tue 03:22:31 PM 42.1964 -79.4733 91° East 532 612 45,000  Level Cleveland Center
Tue 03:23:31 PM 42.1922 -79.2772 92° East 532 612 45,000  Level Cleveland Center
Tue 03:24:31 PM 42.1753 -79.0758 96° East 532 612 45,000  Level Cleveland Center
Tue 03:25:31 PM 42.1308 -78.8864 107° East 532 612 45,000  Level Cleveland Center
Tue 03:26:31 PM 42.0822 -78.6975 109° East 532 612 45,000 -400 Level Cleveland Center
Tue 03:27:31 PM 42.0350 -78.5061 108° East 532 612 44,200 -1,800 Descending Cleveland Center
Tue 03:28:31 PM 41.9836 -78.3178 110° East 538 619 41,400 -2,950 Descending Cleveland Center
Tue 03:29:31 PM 41.9358 -78.1211 108° East 538 619 38,300 -3,000 Descending Cleveland Center
Tue 03:30:31 PM 41.8811 -77.9225 110° East 550 633 35,400 -2,084 Descending Cleveland Center
Tue 03:31:06 PM 41.8469 -77.7933 110° East 550 633 35,000 -253 Descending New York Center
Tue 03:32:06 PM 41.7961 -77.5958 109° East 573 659 35,000 -50 Level New York Center
Tue 03:33:05 PM 41.7425 -77.3986 110° East 573 659 34,900 -650 Descending New York Center
Tue 03:34:06 PM 41.6911 -77.1989 109° East 573 659 33,700 -1,623 Descending New York Center
Tue 03:35:07 PM 41.6389 -77.0078 110° East 561 646 31,600 -2,331 Descending New York Center
Tue 03:36:07 PM 41.5867 -76.8089 109° East 561 646 29,000 -2,750 Descending New York Center
Tue 03:37:07 PM 41.5317 -76.6153 111° Southeast 561 646 26,100 -2,492 Descending New York Center
Tue 03:38:05 PM 41.4911 -76.4650 110° East 561 646 24,100 -1,373 Descending New York Center
Tue 03:39:05 PM 41.4361 -76.2611 110° East 545 627 23,400 -1,091 Descending New York Center
Tue 03:40:06 PM 41.3839 -76.0825 111° Southeast 527 606 21,900 -1,636 Descending New York Center
Tue 03:41:06 PM 41.3353 -75.9103 111° Southeast 510 587 20,100 -1,438 Descending New York Center
Tue 03:42:07 PM 41.2864 -75.7381 111° Southeast 504 580 19,000 -1,488 Descending New York Center
Tue 03:43:07 PM 41.2311 -75.5603 112° Southeast 492 566 17,100 -2,050 Descending New York Center
Tue 03:44:07 PM 41.1789 -75.4050 114° Southeast 472 543 14,900 -2,622 Descending New York Center
Tue 03:45:06 PM 41.1358 -75.2808 115° Southeast 434 499 11,900 -4,487 Descending New York Center
Tue 03:46:06 PM 41.0967 -75.1625 114° Southeast 409 471 6,000 -2,521 Descending New York Center
Tue 03:47:05 PM 41.0553 -75.0414 114° Southeast 333 383 6,900  Climbing New York Center
Tue 03:48:05 PM 41.0231 -74.9514 115° Southeast 312 359 6,000 -1,033 Descending New York Center
Tue 03:49:07 PM 40.9856 -74.8336 113° Southeast 311 358 4,800 -950 Descending New York Center
Tue 03:50:05 PM 40.9972 -74.7356 81° East 288 331 4,100 -458 Descending New York Center
Tue 03:51:05 PM 41.0136 -74.6153 80° East 294 338 3,900 -545 Descending New York Center
Tue 03:52:06 PM 41.0292 -74.5200 78° East 294 338 3,000 -397 Descending New York Center
Tue 03:53:06 PM 41.0447 -74.4192 78° East 264 304 3,100  Climbing New York Center
Tue 03:54:06 PM 41.0581 -74.3264 79° East 252 290 3,000  Descending New York Center
Tue 03:54:24 PM 41.0500 -74.3000 112° Southeast 250 288 3,100 -385 Climbing New York TRACON
Tue 03:55:24 PM 41.0500 -74.2000 90° East 255 293 2,500 -500 Descending New York TRACON
Tue 03:56:24 PM 41.0333 -74.1167 105° East 223 257 2,100 -190 Descending New York TRACON
Tue 03:57:30 PM 41.0000 -74.0500 124° Southeast 203 234 2,100 -50 Level New York TRACON
Tue 03:58:24 PM 40.9500 -74.0500 180° South 187 215 2,000 -444 Descending New York TRACON
Tue 03:59:18 PM 40.9167 -74.0500 180° South 163 188 1,300 -800 Descending New York TRACON
Tue 04:00:24 PM 40.8667 -74.0667 194° South 136 157 400 -818 Descending New York TRACON
Tue 04:02:00 PM 40.8500 -74.0500 180° South  Level FlightAware Approximate
Tue 04:09:00 PM 40.8501 -74.0608 180° South  Level Estimated

Login

Don't have an account? Register now (free) for customized features, flight alerts, and more!